Aérodrome :
LOGIN :

S'inscrire | Disclaimer

   EN    FR    IT 

 










Légende :    VFR   VFR Marginal   IFR   IFR Intensif   IFR Très Intensif
Visi : 
Plafond : 
>= 8 km
>= 3000ft
5 à 8 km
1000 à 3000 ft
1500m à 5 km
500 à 1000 ft
800 à 1500m
200 à 500 ft
< 800m
< 200 ft
Symboles :   Orages  Brouillard  Fortes neiges  Fortes précipitations  Vent > 20 kt
SIGMETs :   Divers  Orages  Givrage  Turbulence  Onde Orograph.  Cendres Volcan.






- Altitude de l'aérodrome : 233 ft
- Code IATA : REU


LERS - Reus Tarragona

DERNIER METAR :
  • 211830Z 29004KT 9999 FEW025 12/08 Q1008

METARs EXPIRÉS :
  • 211800Z 28004KT 9999 FEW025 11/08 Q1008
  • 211730Z VRB02KT CAVOK 11/08 Q1008
  • 211700Z 23003KT 9999 FEW030 11/08 Q1007
  • 211630Z 23005KT 9999 FEW030 12/09 Q1007

TAF TAF LERS
Valide du 21 à 15h jusqu'au 22 à 15h UTC


211400Z 2115/2215 VRB04KT 9999 FEW020 TX16/2213Z TN07/2206Z
TEMPO 2115/2117 24010KT
BECMG 2211/2213 17010KT



MET'MAP, la Météo Aéronautique d'un coup d'oeil ! - Copyright ORBIFLY Décembre 2007 - Disclaimer

ORBIFLY MET'MAP TEAM :

Programmation & Développement : Alexandra Zaïnal
Conception & Développement : Baudouin d'Aumeries
Co-Programmation & Développement : Marc-Olivier Méhu
Soutien technique & logistique : Manuel Goepfert

Contact : metmap@orbifly.com




SOURCES & CREDITS :

   NOAA